Time;durP1;ratioP1;P1;durP2;ratioP2;P2;SDS_P1;SDS_P2;PMS_P1;PMS_P2;Temp;Humidity;BMP_temperature;BMP_pressure;BME280_temperature;BME280_humidity;BME280_pressure;Samples;Min_cycle;Max_cycle;Signal;HPM_P1;HPM_P2
2024/04/17 00:02:03;;;;;;;;;;;;;;;10.24;100.00;97753.98;105837;1257;72805;-81
2024/04/17 00:04:31;;;;;;;;;;;;;;;10.32;100.00;97766.80;105854;1260;62141;-79
2024/04/17 00:06:58;;;;;;;;;;;;;;;10.44;100.00;97781.33;105863;1256;62126;-78
2024/04/17 00:09:25;;;;;;;;;;;;;;;10.40;100.00;97787.48;105841;1260;75921;-78
2024/04/17 00:11:53;;;;;;;;;;;;;;;10.43;100.00;97784.58;105881;1260;67644;-77
2024/04/17 00:14:21;;;;;;;;;;;;;;;10.36;100.00;97787.27;105932;1256;72705;-79
2024/04/17 00:16:48;;;;;;;;;;;;;;;10.29;100.00;97784.00;105830;1257;62136;-78
2024/04/17 00:19:16;;;;;;;;;;;;;;;10.29;100.00;97777.61;105874;1262;62198;-79
2024/04/17 00:21:43;;;;;;;;;;;;;;;10.36;100.00;97791.13;105862;1257;74416;-78
2024/04/17 00:24:10;;;;;;;;;;;;;;;10.24;100.00;97806.33;105932;1259;66314;-77
2024/04/17 00:26:38;;;;;;;;;;;;;;;10.24;100.00;97808.46;105918;1257;72704;-76
2024/04/17 00:29:05;;;;;;;;;;;;;;;10.55;100.00;97810.05;105869;1258;62028;-78
2024/04/17 00:31:32;;;;;;;;;;;;;;;10.33;100.00;97812.89;105887;1257;62103;-77
2024/04/17 00:34:00;;;;;;;;;;;;;;;10.47;100.00;97808.27;105906;1260;75373;-76
2024/04/17 00:36:27;;;;;;;;;;;;;;;10.49;100.00;97795.23;106540;1257;67932;-77
2024/04/17 00:38:54;;;;;;;;;;;;;;;10.50;100.00;97784.61;106208;1257;71811;-77
2024/04/17 00:41:22;;;;;;;;;;;;;;;10.37;100.00;97779.04;105818;1257;62258;-77
2024/04/17 00:43:49;;;;;;;;;;;;;;;10.51;100.00;97771.91;105856;1256;62227;-78
2024/04/17 00:46:17;;;;;;;;;;;;;;;10.59;100.00;97772.64;105871;1259;75475;-78
2024/04/17 00:48:45;;;;;;;;;;;;;;;10.69;100.00;97771.52;105898;1257;68403;-77
2024/04/17 00:51:12;;;;;;;;;;;;;;;10.65;100.00;97768.67;105801;1256;72803;-80
2024/04/17 00:53:40;;;;;;;;;;;;;;;10.62;100.00;97767.98;105862;1261;62068;-79
2024/04/17 00:56:07;;;;;;;;;;;;;;;10.45;100.00;97765.80;105776;1256;62495;-78
2024/04/17 00:58:35;;;;;;;;;;;;;;;10.27;100.00;97766.84;105878;1257;75383;-78
2024/04/17 01:01:02;;;;;;;;;;;;;;;10.34;100.00;97761.08;105908;1257;70681;-77
2024/04/17 01:03:30;;;;;;;;;;;;;;;10.51;100.00;97761.84;105979;1256;71482;-78
2024/04/17 01:05:57;;;;;;;;;;;;;;;10.58;100.00;97761.55;105876;1257;62195;-78
2024/04/17 01:08:25;;;;;;;;;;;;;;;10.53;100.00;97760.63;105918;1260;62045;-78
2024/04/17 01:11:02;;;;;;;;;;;;;;;10.66;100.00;97756.53;105872;1256;75421;-78
2024/04/17 01:13:30;;;;;;;;;;;;;;;10.78;100.00;97767.45;105825;1259;68101;-77
2024/04/17 01:15:57;;;;;;;;;;;;;;;10.70;100.00;97790.30;105898;1259;71452;-78
2024/04/17 01:18:24;;;;;;;;;;;;;;;10.30;100.00;97801.02;105849;1261;62056;-77
2024/04/17 01:20:54;;;;;;;;;;;;;;;10.24;100.00;97796.89;105838;1257;62061;-79
2024/04/17 01:23:21;;;;;;;;;;;;;;;10.27;100.00;97791.70;105923;1254;74297;-77
2024/04/17 01:25:48;;;;;;;;;;;;;;;10.23;100.00;97811.33;105873;1253;68851;-77
2024/04/17 01:28:16;;;;;;;;;;;;;;;10.20;100.00;97824.62;105877;1257;72698;-77
2024/04/17 01:30:44;;;;;;;;;;;;;;;10.39;100.00;97823.75;105908;1256;62108;-78
2024/04/17 01:33:11;;;;;;;;;;;;;;;10.49;100.00;97820.14;105899;1253;62305;-78
2024/04/17 01:35:38;;;;;;;;;;;;;;;10.50;100.00;97810.90;105598;1265;75447;-77
2024/04/17 01:38:06;;;;;;;;;;;;;;;10.60;100.00;97815.48;105865;1262;68571;-77
2024/04/17 01:40:33;;;;;;;;;;;;;;;10.57;100.00;97815.29;105829;1259;72628;-77
2024/04/17 01:43:00;;;;;;;;;;;;;;;10.63;100.00;97803.75;105831;1256;62046;-77
2024/04/17 01:45:28;;;;;;;;;;;;;;;10.65;100.00;97786.75;105857;1254;62989;-76
2024/04/17 01:47:55;;;;;;;;;;;;;;;10.71;100.00;97770.80;105845;1253;75881;-77
2024/04/17 01:50:26;;;;;;;;;;;;;;;10.74;100.00;97753.68;105879;1262;68732;-76
2024/04/17 01:52:54;;;;;;;;;;;;;;;10.76;100.00;97737.92;105810;1257;72693;-76
2024/04/17 01:55:21;;;;;;;;;;;;;;;10.74;100.00;97730.83;105813;1255;62153;-76
2024/04/17 01:57:49;;;;;;;;;;;;;;;10.74;100.00;97717.07;105820;1253;62227;-77
2024/04/17 02:00:16;;;;;;;;;;;;;;;10.54;100.00;97696.88;105850;1254;74250;-76
2024/04/17 02:02:43;;;;;;;;;;;;;;;10.40;100.00;97685.22;105862;1253;71006;-77
2024/04/17 02:05:11;;;;;;;;;;;;;;;10.46;100.00;97677.17;105834;1256;73078;-76
2024/04/17 02:07:38;;;;;;;;;;;;;;;10.41;100.00;97671.16;105843;1256;62170;-77
2024/04/17 02:10:06;;;;;;;;;;;;;;;10.38;100.00;97663.59;105869;1253;62152;-76
2024/04/17 02:12:34;;;;;;;;;;;;;;;10.26;100.00;97669.02;105844;1254;74233;-76
2024/04/17 02:15:01;;;;;;;;;;;;;;;10.19;100.00;97681.56;105836;1261;71081;-77
2024/04/17 02:17:28;;;;;;;;;;;;;;;10.36;100.00;97683.80;105812;1257;73067;-76
2024/04/17 02:19:56;;;;;;;;;;;;;;;10.32;100.00;97684.42;105877;1260;62278;-76
2024/04/17 02:22:23;;;;;;;;;;;;;;;10.38;100.00;97687.40;105795;1260;62377;-77
2024/04/17 02:24:50;;;;;;;;;;;;;;;10.47;100.00;97690.80;105776;1256;74295;-77
2024/04/17 02:27:18;;;;;;;;;;;;;;;10.62;100.00;97700.41;105900;1257;68778;-76
2024/04/17 02:29:47;;;;;;;;;;;;;;;10.45;100.00;97706.95;105793;1257;72673;-77
2024/04/17 02:32:15;;;;;;;;;;;;;;;9.45;100.00;97716.35;105734;1257;63291;-77
2024/04/17 02:34:42;;;;;;;;;;;;;;;9.20;100.00;97728.70;105770;1262;61951;-76
2024/04/17 02:37:09;;;;;;;;;;;;;;;9.21;100.00;97735.16;105808;1257;74241;-77
2024/04/17 02:39:37;;;;;;;;;;;;;;;9.27;100.00;97744.67;105591;1265;67650;-77
2024/04/17 02:42:04;;;;;;;;;;;;;;;9.21;100.00;97750.05;105732;1260;72960;-77
2024/04/17 02:44:31;;;;;;;;;;;;;;;9.32;100.00;97759.83;105805;1262;62220;-77
2024/04/17 02:47:00;;;;;;;;;;;;;;;9.27;100.00;97767.54;105742;1257;62063;-77
2024/04/17 02:49:28;;;;;;;;;;;;;;;9.21;100.00;97773.98;105847;1257;75557;-76
2024/04/17 02:51:56;;;;;;;;;;;;;;;9.51;100.00;97784.58;105843;1261;67560;-77
2024/04/17 02:54:23;;;;;;;;;;;;;;;9.42;100.00;97789.66;105913;1253;73759;-75
2024/04/17 02:56:50;;;;;;;;;;;;;;;9.62;100.00;97794.90;105918;1254;62193;-76
2024/04/17 02:59:18;;;;;;;;;;;;;;;9.69;100.00;97796.79;106085;1253;63151;-78
2024/04/17 03:01:45;;;;;;;;;;;;;;;9.60;100.00;97798.04;105958;1253;73602;-77
2024/04/17 03:04:12;;;;;;;;;;;;;;;9.60;100.00;97805.81;105949;1253;68466;-77
2024/04/17 03:06:40;;;;;;;;;;;;;;;9.69;100.00;97807.81;105974;1259;72697;-77
2024/04/17 03:09:07;;;;;;;;;;;;;;;9.75;100.00;97804.20;105966;1257;63140;-78
2024/04/17 03:11:39;;;;;;;;;;;;;;;9.50;100.00;97800.52;106037;1259;62508;-78
2024/04/17 03:14:06;;;;;;;;;;;;;;;9.45;100.00;97798.72;105944;1259;75423;-78
2024/04/17 03:16:33;;;;;;;;;;;;;;;9.51;100.00;97795.08;105925;1259;68854;-78
2024/04/17 03:19:02;;;;;;;;;;;;;;;9.39;100.00;97792.32;105684;1259;72876;-78
2024/04/17 03:21:30;;;;;;;;;;;;;;;9.52;100.00;97790.75;105954;1256;62614;-77
2024/04/17 03:23:57;;;;;;;;;;;;;;;9.70;100.00;97788.95;105923;1253;62156;-77
2024/04/17 03:26:24;;;;;;;;;;;;;;;9.61;100.00;97783.30;105942;1259;75540;-77
2024/04/17 03:28:52;;;;;;;;;;;;;;;9.60;100.00;97786.40;105966;1254;68885;-77
2024/04/17 03:31:19;;;;;;;;;;;;;;;9.64;100.00;97794.34;105933;1257;72651;-77
2024/04/17 03:33:47;;;;;;;;;;;;;;;9.57;100.00;97792.24;106005;1259;61939;-76
2024/04/17 03:36:14;;;;;;;;;;;;;;;9.65;100.00;97789.88;106025;1261;62040;-77
2024/04/17 03:38:41;;;;;;;;;;;;;;;9.68;100.00;97779.11;106039;1259;75452;-77
2024/04/17 03:41:09;;;;;;;;;;;;;;;9.61;100.00;97774.34;106026;1254;68515;-76
2024/04/17 03:43:36;;;;;;;;;;;;;;;9.46;100.00;97773.18;106038;1254;72634;-77
2024/04/17 03:46:04;;;;;;;;;;;;;;;9.51;100.00;97765.83;106014;1254;62165;-77
2024/04/17 03:48:32;;;;;;;;;;;;;;;9.65;100.00;97758.91;106019;1254;62207;-76
2024/04/17 03:50:59;;;;;;;;;;;;;;;9.40;100.00;97754.35;106055;1253;75480;-77
2024/04/17 03:53:27;;;;;;;;;;;;;;;9.35;100.00;97749.34;106137;1254;68791;-79
2024/04/17 03:55:55;;;;;;;;;;;;;;;9.26;100.00;97742.92;106314;1253;71489;-78
2024/04/17 03:58:22;;;;;;;;;;;;;;;9.30;100.00;97739.39;106258;1254;62049;-78
2024/04/17 04:00:50;;;;;;;;;;;;;;;9.36;100.00;97747.92;105918;1254;62041;-79
2024/04/17 04:03:17;;;;;;;;;;;;;;;9.47;100.00;97747.86;105942;1253;75557;-79
2024/04/17 04:05:45;;;;;;;;;;;;;;;9.52;100.00;97748.77;106014;1259;67547;-79
2024/04/17 04:08:13;;;;;;;;;;;;;;;9.54;100.00;97744.02;106017;1260;72654;-77
2024/04/17 04:10:40;;;;;;;;;;;;;;;9.61;100.00;97743.65;106003;1262;62109;-80
2024/04/17 04:13:08;;;;;;;;;;;;;;;9.73;100.00;97737.69;106040;1254;62105;-79
2024/04/17 04:15:36;;;;;;;;;;;;;;;9.71;100.00;97734.92;105962;1254;74267;-78
2024/04/17 04:18:03;;;;;;;;;;;;;;;9.72;100.00;97738.65;106062;1260;67491;-79
2024/04/17 04:20:32;;;;;;;;;;;;;;;9.76;100.00;97746.79;106152;1259;72897;-79
2024/04/17 04:22:59;;;;;;;;;;;;;;;9.79;100.00;97752.09;105995;1257;62293;-80
2024/04/17 04:25:27;;;;;;;;;;;;;;;9.80;100.00;97746.61;106109;1257;62120;-81
2024/04/17 04:27:54;;;;;;;;;;;;;;;9.96;100.00;97741.71;106058;1256;74248;-79
2024/04/17 04:30:21;;;;;;;;;;;;;;;10.09;100.00;97739.92;106248;1256;68780;-79
2024/04/17 04:32:50;;;;;;;;;;;;;;;9.99;100.00;97737.56;106090;1258;71489;-80
2024/04/17 04:35:18;;;;;;;;;;;;;;;10.19;100.00;97733.10;105822;1259;62091;-86
2024/04/17 04:37:45;;;;;;;;;;;;;;;10.07;100.00;97740.98;106308;1257;62000;-77
2024/04/17 04:40:12;;;;;;;;;;;;;;;10.06;100.00;97750.52;107446;1256;75551;-78
2024/04/17 04:43:18;;;;;;;;;;;;;;;9.95;100.00;97745.58;108215;1256;67616;-78
2024/04/17 04:50:17;;;;;;;;;;;;;;;9.98;100.00;97742.02;106306;1256;62053;-78
2024/04/17 04:52:44;;;;;;;;;;;;;;;9.97;100.00;97739.86;105711;1262;62130;-77
2024/04/17 04:55:12;;;;;;;;;;;;;;;10.02;100.00;97740.30;105895;1257;75581;-78
2024/04/17 04:57:39;;;;;;;;;;;;;;;10.09;100.00;97748.23;106021;1261;67600;-77
2024/04/17 05:00:09;;;;;;;;;;;;;;;10.18;100.00;97752.96;106011;1255;71466;-77
2024/04/17 05:02:38;;;;;;;;;;;;;;;10.08;100.00;97758.06;106234;1262;62940;-78
2024/04/17 05:05:05;;;;;;;;;;;;;;;10.09;100.00;97765.77;106115;1257;62102;-77
2024/04/17 05:07:34;;;;;;;;;;;;;;;9.97;100.00;97767.09;106055;1257;74297;-76
2024/04/17 05:10:02;;;;;;;;;;;;;;;9.97;100.00;97770.52;105940;1260;66604;-76
2024/04/17 05:12:30;;;;;;;;;;;;;;;10.00;100.00;97780.50;105885;1260;72298;-77
2024/04/17 05:14:57;;;;;;;;;;;;;;;10.15;100.00;97785.52;105968;1257;62241;-76
2024/04/17 05:17:24;;;;;;;;;;;;;;;10.06;100.00;97786.02;106177;1258;61977;-75
2024/04/17 05:19:52;;;;;;;;;;;;;;;10.16;100.00;97793.27;106015;1260;74397;-76
2024/04/17 05:22:20;;;;;;;;;;;;;;;10.26;100.00;97792.52;106156;1261;67949;-77
2024/04/17 05:24:47;;;;;;;;;;;;;;;10.32;100.00;97796.99;105885;1257;72667;-78
2024/04/17 05:27:15;;;;;;;;;;;;;;;10.40;100.00;97800.61;106122;1260;63199;-76
2024/04/17 05:29:42;;;;;;;;;;;;;;;10.37;100.00;97804.89;106022;1260;61955;-76
2024/04/17 05:32:14;;;;;;;;;;;;;;;10.25;100.00;97805.77;106099;1260;75615;-76
2024/04/17 05:34:42;;;;;;;;;;;;;;;10.24;100.00;97806.64;106313;1260;69003;-77
2024/04/17 05:37:09;;;;;;;;;;;;;;;10.27;100.00;97812.23;106022;1260;276823;-76
2024/04/17 05:39:37;;;;;;;;;;;;;;;10.41;100.00;97815.83;106296;1257;61999;-78
2024/04/17 05:42:05;;;;;;;;;;;;;;;10.61;100.00;97823.20;106254;1260;62198;-76
2024/04/17 05:44:32;;;;;;;;;;;;;;;10.46;100.00;97831.67;106341;1256;75367;-78
2024/04/17 05:47:00;;;;;;;;;;;;;;;10.45;100.00;97838.13;106183;1260;67608;-77
2024/04/17 05:49:28;;;;;;;;;;;;;;;10.42;100.00;97838.83;106183;1261;72698;-77
2024/04/17 05:51:56;;;;;;;;;;;;;;;10.37;100.00;97842.05;106252;1256;62047;-78
2024/04/17 05:54:24;;;;;;;;;;;;;;;10.36;100.00;97844.65;106280;1257;61926;-77
2024/04/17 05:56:51;;;;;;;;;;;;;;;10.39;100.00;97846.38;106231;1262;75449;-77
2024/04/17 05:59:18;;;;;;;;;;;;;;;10.45;100.00;97851.27;106199;1262;67634;-78
2024/04/17 06:01:46;;;;;;;;;;;;;;;10.59;100.00;97851.46;106016;1262;71506;-77
2024/04/17 06:04:13;;;;;;;;;;;;;;;10.48;100.00;97850.10;105978;1262;62489;-78
2024/04/17 06:06:40;;;;;;;;;;;;;;;10.60;100.00;97852.16;105731;1262;62152;-78
2024/04/17 06:09:08;;;;;;;;;;;;;;;10.59;100.00;97848.73;105681;1257;75464;-76
2024/04/17 06:11:35;;;;;;;;;;;;;;;10.63;100.00;97846.36;105793;1257;68989;-79
2024/04/17 06:14:03;;;;;;;;;;;;;;;10.76;100.00;97846.98;105752;1262;71743;-78
2024/04/17 06:16:35;;;;;;;;;;;;;;;10.91;100.00;97851.63;106287;1256;62053;-75
2024/04/17 06:19:02;;;;;;;;;;;;;;;10.92;100.00;97854.50;109165;1258;59587;-75
2024/04/17 06:21:29;;;;;;;;;;;;;;;10.99;100.00;97855.40;109195;1256;74489;-77
2024/04/17 06:23:57;;;;;;;;;;;;;;;11.09;100.00;97857.85;109347;1255;67569;-76
2024/04/17 06:26:24;;;;;;;;;;;;;;;11.10;100.00;97857.55;107126;1260;71472;-75
2024/04/17 06:28:51;;;;;;;;;;;;;;;11.14;100.00;97855.98;105951;1260;62114;-77
2024/04/17 06:31:18;;;;;;;;;;;;;;;11.09;100.00;97863.64;106017;1260;62578;-78
2024/04/17 06:33:46;;;;;;;;;;;;;;;11.12;100.00;97868.57;106011;1257;74257;-77
2024/04/17 06:36:13;;;;;;;;;;;;;;;11.10;100.00;97871.19;105947;1262;67580;-77
2024/04/17 06:38:40;;;;;;;;;;;;;;;11.01;100.00;97877.00;105968;1260;72707;-76
2024/04/17 06:41:08;;;;;;;;;;;;;;;11.05;100.00;97878.66;105951;1259;62153;-76
2024/04/17 06:43:40;;;;;;;;;;;;;;;10.84;100.00;97880.95;105945;1257;62126;-76
2024/04/17 06:46:07;;;;;;;;;;;;;;;10.41;100.00;97888.30;106020;1260;77253;-77
2024/04/17 06:48:34;;;;;;;;;;;;;;;10.29;100.00;97892.30;105936;1260;68417;-76
2024/04/17 06:51:02;;;;;;;;;;;;;;;10.33;100.00;97898.51;106050;1260;72800;-75
2024/04/17 06:53:29;;;;;;;;;;;;;;;10.45;100.00;97905.55;105935;1262;63357;-76
2024/04/17 06:55:58;;;;;;;;;;;;;;;10.60;100.00;97906.86;105987;1260;61933;-76
2024/04/17 06:58:25;;;;;;;;;;;;;;;10.63;100.00;97909.30;105962;1260;75561;-77
2024/04/17 07:00:53;;;;;;;;;;;;;;;10.64;100.00;97909.96;105954;1260;68741;-75
2024/04/17 07:03:20;;;;;;;;;;;;;;;10.67;100.00;97910.62;105895;1262;72628;-75
2024/04/17 07:05:48;;;;;;;;;;;;;;;10.64;100.00;97911.48;105909;1262;62040;-75
2024/04/17 07:08:15;;;;;;;;;;;;;;;10.83;100.00;97911.10;106048;1262;62075;-77
2024/04/17 07:10:43;;;;;;;;;;;;;;;11.02;100.00;97910.81;105976;1260;74497;-76
2024/04/17 07:13:10;;;;;;;;;;;;;;;11.09;100.00;97908.21;105869;1260;67549;-75
2024/04/17 07:15:38;;;;;;;;;;;;;;;11.12;100.00;97908.86;105802;1260;71576;-76
2024/04/17 07:18:05;;;;;;;;;;;;;;;11.20;100.00;97909.67;105881;1260;62033;-75
2024/04/17 07:20:33;;;;;;;;;;;;;;;11.35;100.00;97908.36;105871;1264;62123;-74
2024/04/17 07:23:00;;;;;;;;;;;;;;;11.27;100.00;97909.27;105864;1263;75340;-75
2024/04/17 07:25:28;;;;;;;;;;;;;;;11.22;100.00;97906.91;105864;1258;68737;-75
2024/04/17 07:27:55;;;;;;;;;;;;;;;11.27;100.00;97907.61;105833;1260;71465;-75
2024/04/17 07:30:23;;;;;;;;;;;;;;;11.32;99.39;97901.51;105888;1256;62201;-75
2024/04/17 07:32:50;;;;;;;;;;;;;;;11.41;99.90;97900.94;105841;1255;62076;-75
2024/04/17 07:35:19;;;;;;;;;;;;;;;11.64;100.00;97899.23;105801;1260;75474;-75
2024/04/17 07:37:47;;;;;;;;;;;;;;;11.48;100.00;97900.54;105876;1268;67226;-75
2024/04/17 07:40:14;;;;;;;;;;;;;;;11.50;100.00;97901.52;105808;1260;71449;-75
2024/04/17 07:42:42;;;;;;;;;;;;;;;11.55;100.00;97900.30;105831;1262;62078;-76
2024/04/17 07:45:09;;;;;;;;;;;;;;;11.31;94.75;97903.54;105870;1259;62041;-76
2024/04/17 07:47:37;;;;;;;;;;;;;;;11.19;95.11;97910.13;105891;1260;74449;-77
2024/04/17 07:50:04;;;;;;;;;;;;;;;11.20;99.44;97905.97;105889;1260;67281;-75
2024/04/17 07:52:32;;;;;;;;;;;;;;;11.18;100.00;97902.88;105855;1260;72045;-77
2024/04/17 07:54:59;;;;;;;;;;;;;;;11.18;99.98;97906.54;105785;1263;62062;-77
2024/04/17 07:57:28;;;;;;;;;;;;;;;11.14;99.76;97903.34;105912;1257;62129;-77
2024/04/17 07:59:55;;;;;;;;;;;;;;;11.09;100.00;97902.61;105929;1258;75437;-77
2024/04/17 08:02:22;;;;;;;;;;;;;;;11.12;100.00;97897.42;105888;1260;66296;-77
2024/04/17 08:04:50;;;;;;;;;;;;;;;11.10;100.00;97899.02;105824;1262;75510;-76
2024/04/17 08:07:18;;;;;;;;;;;;;;;11.11;100.00;97895.66;105839;1260;62156;-77
2024/04/17 08:09:45;;;;;;;;;;;;;;;11.14;100.00;97893.46;105820;1257;62205;-77
2024/04/17 08:12:12;;;;;;;;;;;;;;;11.22;99.86;97895.73;105890;1262;75442;-77
2024/04/17 08:14:40;;;;;;;;;;;;;;;11.14;99.93;97894.60;106147;1259;68741;-77
2024/04/17 08:17:07;;;;;;;;;;;;;;;11.02;100.00;97889.07;105896;1258;71947;-77
2024/04/17 08:19:36;;;;;;;;;;;;;;;10.98;100.00;97888.88;106111;1259;62116;-77
2024/04/17 08:22:04;;;;;;;;;;;;;;;11.05;100.00;97880.84;105885;1260;62141;-77
2024/04/17 08:24:31;;;;;;;;;;;;;;;11.01;100.00;97877.01;105849;1260;75373;-77
2024/04/17 08:26:59;;;;;;;;;;;;;;;11.08;100.00;97873.11;105840;1258;68875;-76
2024/04/17 08:29:26;;;;;;;;;;;;;;;11.01;100.00;97876.05;105855;1257;72718;-76
2024/04/17 08:31:57;;;;;;;;;;;;;;;11.08;100.00;97870.05;105928;1261;62119;-76
2024/04/17 08:34:24;;;;;;;;;;;;;;;11.19;100.00;97871.88;105873;1255;62118;-75
2024/04/17 08:36:52;;;;;;;;;;;;;;;11.31;100.00;97867.45;105561;1265;75462;-76
2024/04/17 08:39:20;;;;;;;;;;;;;;;11.34;100.00;97868.03;105813;1260;68497;-76
2024/04/17 08:41:47;;;;;;;;;;;;;;;11.46;100.00;97868.66;105885;1258;71445;-76
2024/04/17 08:44:17;;;;;;;;;;;;;;;11.47;100.00;97867.63;105830;1260;62075;-77
2024/04/17 08:46:45;;;;;;;;;;;;;;;11.65;99.61;97870.89;105823;1255;62047;-76
2024/04/17 08:49:12;;;;;;;;;;;;;;;11.47;100.00;97872.50;105828;1260;74290;-76
2024/04/17 08:51:40;;;;;;;;;;;;;;;11.68;99.94;97872.77;105884;1261;67821;-77
2024/04/17 08:54:07;;;;;;;;;;;;;;;11.63;99.19;97866.14;105824;1260;72658;-77
2024/04/17 08:56:35;;;;;;;;;;;;;;;11.55;98.98;97868.57;105871;1257;62203;-77
2024/04/17 08:59:02;;;;;;;;;;;;;;;11.46;97.66;97872.95;105886;1257;62142;-77
2024/04/17 09:01:31;;;;;;;;;;;;;;;11.34;99.18;97864.92;105806;1257;74289;-76
2024/04/17 09:03:59;;;;;;;;;;;;;;;11.15;100.00;97865.73;105900;1259;67647;-76
2024/04/17 09:06:27;;;;;;;;;;;;;;;11.04;100.00;97870.65;105765;1260;72709;-76
2024/04/17 09:08:55;;;;;;;;;;;;;;;10.99;100.00;97873.19;105836;1257;62088;-78
2024/04/17 09:11:23;;;;;;;;;;;;;;;11.10;100.00;97876.10;105939;1261;61994;-77
2024/04/17 09:13:50;;;;;;;;;;;;;;;11.11;100.00;97878.31;105786;1257;74349;-79
2024/04/17 09:16:18;;;;;;;;;;;;;;;11.19;100.00;97878.55;105966;1257;67736;-78
2024/04/17 09:18:48;;;;;;;;;;;;;;;11.48;97.88;97876.98;106818;1257;72680;-77
2024/04/17 09:21:16;;;;;;;;;;;;;;;11.46;96.72;97881.61;107293;1257;62077;-79
2024/04/17 09:23:50;;;;;;;;;;;;;;;11.41;98.54;97879.41;107890;1254;61961;-77
2024/04/17 09:26:55;;;;;;;;;;;;;;;11.32;100.00;97875.81;106055;1258;75428;-78
2024/04/17 09:29:22;;;;;;;;;;;;;;;11.31;100.00;97875.45;105969;1257;67273;-79
2024/04/17 09:31:50;;;;;;;;;;;;;;;11.46;100.00;97870.17;106042;1258;73819;-77
2024/04/17 09:34:18;;;;;;;;;;;;;;;11.54;99.13;97869.03;105977;1260;63207;-78
2024/04/17 09:36:45;;;;;;;;;;;;;;;11.63;98.45;97865.12;105704;1264;62169;-80
2024/04/17 09:39:13;;;;;;;;;;;;;;;11.77;100.00;97863.02;106118;1260;74418;-81
2024/04/17 09:41:41;;;;;;;;;;;;;;;11.89;98.43;97869.27;105943;1260;67578;-82
2024/04/17 09:44:12;;;;;;;;;;;;;;;11.86;95.40;97874.16;105773;1258;72478;-84
2024/04/17 09:46:43;;;;;;;;;;;;;;;11.86;98.59;97877.12;105683;1263;62563;-85
2024/04/17 09:49:19;;;;;;;;;;;;;;;12.02;97.88;97882.30;105949;1255;62165;-81
2024/04/17 09:51:47;;;;;;;;;;;;;;;12.26;99.25;97879.83;106332;1260;75468;-81
2024/04/17 09:54:14;;;;;;;;;;;;;;;12.50;97.46;97878.17;105885;1254;70233;-85
2024/04/17 09:56:41;;;;;;;;;;;;;;;12.63;95.58;97884.70;106108;1271;71462;-82
2024/04/17 09:59:10;;;;;;;;;;;;;;;12.52;92.26;97883.46;106169;1260;62198;-85
2024/04/17 10:01:38;;;;;;;;;;;;;;;12.59;90.71;97876.15;106010;1260;62024;-80
2024/04/17 10:04:07;;;;;;;;;;;;;;;12.62;91.85;97878.98;106075;1257;74271;-81
2024/04/17 10:06:43;;;;;;;;;;;;;;;12.66;90.01;97883.54;106283;1260;68907;-81
2024/04/17 10:09:13;;;;;;;;;;;;;;;12.71;88.29;97883.83;105812;1257;70695;-82
2024/04/17 10:11:41;;;;;;;;;;;;;;;12.79;90.01;97882.41;105663;1257;62104;-82
2024/04/17 10:14:10;;;;;;;;;;;;;;;12.76;85.49;97879.05;105722;1257;62137;-82
2024/04/17 10:16:37;;;;;;;;;;;;;;;12.68;85.05;97884.77;105770;1260;74287;-80
2024/04/17 10:19:05;;;;;;;;;;;;;;;12.81;87.53;97887.15;105816;1257;69043;-82
2024/04/17 10:21:36;;;;;;;;;;;;;;;13.00;86.75;97880.90;105716;1258;72731;-83
2024/04/17 10:24:06;;;;;;;;;;;;;;;12.99;83.05;97887.20;105711;1257;62146;-84
2024/04/17 10:26:44;;;;;;;;;;;;;;;13.17;85.43;97897.08;105757;1257;62172;-85
2024/04/17 10:29:24;;;;;;;;;;;;;;;13.23;78.22;97905.83;105837;1254;75455;-82
2024/04/17 10:32:01;;;;;;;;;;;;;;;13.19;82.39;97896.85;105730;1260;68754;-84
2024/04/17 10:34:29;;;;;;;;;;;;;;;13.27;82.09;97886.39;105690;1257;72824;-81
2024/04/17 10:37:01;;;;;;;;;;;;;;;13.27;79.55;97878.84;105717;1260;62072;-80
2024/04/17 10:39:28;;;;;;;;;;;;;;;13.40;80.81;97880.58;105757;1257;63099;-80
2024/04/17 10:41:59;;;;;;;;;;;;;;;13.27;71.77;97880.48;105763;1260;75938;-77
2024/04/17 10:44:27;;;;;;;;;;;;;;;12.98;71.21;97893.88;105707;1257;68588;-79
2024/04/17 10:47:04;;;;;;;;;;;;;;;12.99;74.95;97899.37;105813;1260;72647;-77
2024/04/17 10:49:38;;;;;;;;;;;;;;;12.91;74.59;97899.49;105823;1260;62060;-78
2024/04/17 10:52:05;;;;;;;;;;;;;;;12.86;72.68;97898.73;105777;1258;62188;-78
2024/04/17 10:54:33;;;;;;;;;;;;;;;12.63;72.66;97898.41;105835;1260;73219;-77
2024/04/17 10:57:04;;;;;;;;;;;;;;;12.77;77.27;97895.52;105880;1258;68913;-77
2024/04/17 10:59:31;;;;;;;;;;;;;;;12.91;75.11;97893.89;105807;1258;72648;-77
2024/04/17 11:01:59;;;;;;;;;;;;;;;13.09;75.36;97897.52;105850;1254;62301;-78
2024/04/17 11:04:27;;;;;;;;;;;;;;;13.05;71.91;97899.75;105820;1255;62317;-75
2024/04/17 11:06:54;;;;;;;;;;;;;;;13.08;70.61;97894.72;105855;1260;75571;-76
2024/04/17 11:09:21;;;;;;;;;;;;;;;13.01;69.19;97891.58;105871;1258;68739;-76
2024/04/17 11:11:49;;;;;;;;;;;;;;;12.97;71.48;97892.48;105785;1257;71856;-75
2024/04/17 11:14:17;;;;;;;;;;;;;;;13.03;72.96;97892.11;105769;1257;62069;-76
2024/04/17 11:16:44;;;;;;;;;;;;;;;13.23;71.14;97895.75;105759;1260;62181;-76
2024/04/17 11:19:14;;;;;;;;;;;;;;;13.50;70.59;97895.98;105756;1263;75430;-76
2024/04/17 11:21:45;;;;;;;;;;;;;;;13.58;68.69;97899.48;105839;1254;68566;-76
2024/04/17 11:24:20;;;;;;;;;;;;;;;13.61;65.45;97898.57;105838;1257;71491;-76
2024/04/17 11:26:47;;;;;;;;;;;;;;;13.84;66.90;97905.34;105721;1264;62115;-75
2024/04/17 11:29:15;;;;;;;;;;;;;;;14.10;64.44;97907.90;105819;1260;61961;-76
2024/04/17 11:31:49;;;;;;;;;;;;;;;14.47;66.23;97907.70;105777;1259;75865;-75
2024/04/17 11:34:18;;;;;;;;;;;;;;;14.74;63.00;97911.86;105668;1263;67652;-75
2024/04/17 11:36:47;;;;;;;;;;;;;;;14.81;59.12;97916.25;105745;1258;72684;-75
2024/04/17 11:39:18;;;;;;;;;;;;;;;14.59;58.11;97912.55;105523;1261;62187;-75
2024/04/17 11:41:48;;;;;;;;;;;;;;;14.57;60.38;97910.73;105806;1257;62082;-74
2024/04/17 11:44:16;;;;;;;;;;;;;;;14.74;58.51;97912.66;105872;1260;77541;-77
2024/04/17 11:46:43;;;;;;;;;;;;;;;14.58;57.01;97914.42;105712;1257;68095;-75
2024/04/17 11:49:11;;;;;;;;;;;;;;;14.46;55.51;97918.90;105792;1260;70781;-76
2024/04/17 11:51:38;;;;;;;;;;;;;;;14.13;55.77;97918.95;105807;1254;62049;-75
2024/04/17 11:54:06;;;;;;;;;;;;;;;13.89;56.59;97915.61;105802;1257;62146;-75
2024/04/17 11:56:33;;;;;;;;;;;;;;;14.01;60.83;97916.22;105834;1257;75584;-75
2024/04/17 11:59:00;;;;;;;;;;;;;;;14.33;59.17;97918.10;105820;1257;68729;-76
2024/04/17 12:01:28;;;;;;;;;;;;;;;14.49;56.50;97914.86;105805;1257;72719;-74
2024/04/17 12:03:55;;;;;;;;;;;;;;;14.42;56.96;97910.83;105779;1258;62234;-76
2024/04/17 12:06:23;;;;;;;;;;;;;;;14.41;57.13;97909.39;105879;1255;62696;-76
2024/04/17 12:08:50;;;;;;;;;;;;;;;14.32;55.20;97916.77;105861;1257;74102;-75
2024/04/17 12:11:18;;;;;;;;;;;;;;;14.33;54.25;97919.94;105879;1261;66826;-75
2024/04/17 12:13:46;;;;;;;;;;;;;;;14.26;55.39;97919.41;105912;1256;71436;-75
2024/04/17 12:16:13;;;;;;;;;;;;;;;14.04;56.67;97916.02;105865;1260;62134;-75
2024/04/17 12:18:41;;;;;;;;;;;;;;;14.10;57.52;97917.94;105833;1256;61996;-75
2024/04/17 12:21:08;;;;;;;;;;;;;;;14.10;56.43;97917.63;105870;1260;74331;-75
2024/04/17 12:23:37;;;;;;;;;;;;;;;14.11;55.78;97919.96;105825;1260;66661;-75
2024/04/17 12:28:54;;;;;;;;;;;;;;;14.08;55.32;97920.92;105852;1256;62061;-76
2024/04/17 12:31:23;;;;;;;;;;;;;;;14.13;56.02;97916.34;105873;1257;61945;-77
2024/04/17 12:33:51;;;;;;;;;;;;;;;14.04;55.24;97912.16;105961;1258;75489;-75
2024/04/17 12:36:19;;;;;;;;;;;;;;;14.02;55.22;97907.77;105857;1261;68777;-75
2024/04/17 12:38:46;;;;;;;;;;;;;;;14.03;56.87;97904.42;105903;1258;70894;-75
2024/04/17 12:41:13;;;;;;;;;;;;;;;13.97;56.44;97906.15;105780;1257;62168;-75
2024/04/17 12:43:41;;;;;;;;;;;;;;;14.00;57.18;97905.42;105854;1257;62053;-75